Time;durP1;ratioP1;P1;durP2;ratioP2;P2;SDS_P1;SDS_P2;PMS_P1;PMS_P2;Temp;Humidity;BMP_temperature;BMP_pressure;BME280_temperature;BME280_humidity;BME280_pressure;Samples;Min_cycle;Max_cycle;Signal;HPM_P1;HPM_P2
2021/10/06 00:01:08;;;;;;;4.63;1.20;;;;;;;;;;5054108;28;20221;-72
2021/10/06 00:03:35;;;;;;;5.20;1.73;;;;;;;;;;5055645;28;20221;-72
2021/10/06 00:06:02;;;;;;;7.07;1.60;;;;;;;;;;5055036;28;20246;-71
2021/10/06 00:08:29;;;;;;;4.10;1.07;;;;;;;;;;5054313;28;20663;-71
2021/10/06 00:10:56;;;;;;;2.40;1.73;;;;;;;;;;5054977;28;20267;-71
2021/10/06 00:13:23;;;;;;;6.20;1.60;;;;;;;;;;5053943;28;20247;-72
2021/10/06 00:15:49;;;;;;;5.43;1.70;;;;;;;;;;5053879;28;20243;-72
2021/10/06 00:18:16;;;;;;;3.43;1.50;;;;;;;;;;5055799;28;20683;-71
2021/10/06 00:20:43;;;;;;;2.50;1.60;;;;;;;;;;5056938;28;20706;-71
2021/10/06 00:23:09;;;;;;;5.03;1.90;;;;;;;;;;5055511;28;20672;-71
2021/10/06 00:25:37;;;;;;;3.93;1.47;;;;;;;;;;5055820;28;20272;-71
2021/10/06 00:28:04;;;;;;;8.07;2.30;;;;;;;;;;5053698;28;20267;-71
2021/10/06 00:30:30;;;;;;;4.80;1.80;;;;;;;;;;5052076;28;20267;-71
2021/10/06 00:32:57;;;;;;;6.67;2.13;;;;;;;;;;5054723;28;21030;-71
2021/10/06 00:35:23;;;;;;;4.83;2.10;;;;;;;;;;5053091;28;20226;-71
2021/10/06 00:37:49;;;;;;;4.93;1.67;;;;;;;;;;5054739;28;20214;-71
2021/10/06 00:40:16;;;;;;;4.43;1.90;;;;;;;;;;5051873;28;20216;-71
2021/10/06 00:42:44;;;;;;;6.57;3.27;;;;;;;;;;5053871;28;20221;-71
2021/10/06 00:45:10;;;;;;;7.10;2.37;;;;;;;;;;5053175;28;20257;-70
2021/10/06 00:47:37;;;;;;;5.37;3.10;;;;;;;;;;5055579;28;20267;-71
2021/10/06 00:50:05;;;;;;;6.53;3.00;;;;;;;;;;5056281;28;20303;-70
2021/10/06 00:52:31;;;;;;;5.43;3.00;;;;;;;;;;5055458;28;20236;-71
2021/10/06 00:54:58;;;;;;;5.03;3.10;;;;;;;;;;5053688;28;20552;-71
2021/10/06 00:57:24;;;;;;;4.67;2.47;;;;;;;;;;5054283;28;20213;-71
2021/10/06 00:59:52;;;;;;;3.97;2.50;;;;;;;;;;5055337;28;20299;-71
2021/10/06 01:02:18;;;;;;;5.80;2.80;;;;;;;;;;5053242;28;20220;-70
2021/10/06 01:04:44;;;;;;;6.10;2.90;;;;;;;;;;5055458;28;21080;-71
2021/10/06 01:07:11;;;;;;;4.10;2.90;;;;;;;;;;5055160;28;20270;-71
2021/10/06 01:09:38;;;;;;;9.80;3.00;;;;;;;;;;5052355;28;20226;-71
2021/10/06 01:12:06;;;;;;;5.67;3.10;;;;;;;;;;5054318;28;20291;-71
2021/10/06 01:14:32;;;;;;;7.00;3.27;;;;;;;;;;5054125;28;20266;-71
2021/10/06 01:17:00;;;;;;;9.63;3.70;;;;;;;;;;5054651;28;20213;-71
2021/10/06 01:19:28;;;;;;;8.67;3.50;;;;;;;;;;5055775;28;20217;-71
2021/10/06 01:21:58;;;;;;;7.17;3.43;;;;;;;;;;5052524;28;20220;-71
2021/10/06 01:24:26;;;;;;;3.80;2.67;;;;;;;;;;5054608;28;20217;-70
2021/10/06 01:26:53;;;;;;;7.40;3.67;;;;;;;;;;5053703;28;20255;-70
2021/10/06 01:29:20;;;;;;;5.07;4.00;;;;;;;;;;5056020;28;20565;-71
2021/10/06 01:31:48;;;;;;;9.80;4.10;;;;;;;;;;5056786;28;20268;-71
2021/10/06 01:34:16;;;;;;;9.77;4.40;;;;;;;;;;5057445;28;20292;-71
2021/10/06 01:36:43;;;;;;;4.50;4.07;;;;;;;;;;5056974;28;20286;-71
2021/10/06 01:39:10;;;;;;;7.73;4.17;;;;;;;;;;5056787;28;20273;-71
2021/10/06 01:41:37;;;;;;;9.93;4.80;;;;;;;;;;5055389;28;20267;-71
2021/10/06 01:44:04;;;;;;;6.33;3.80;;;;;;;;;;5055744;28;20271;-71
2021/10/06 01:46:31;;;;;;;8.90;4.33;;;;;;;;;;5057128;28;20240;-71
2021/10/06 01:48:58;;;;;;;9.30;4.57;;;;;;;;;;5058528;28;20217;-71
2021/10/06 01:51:25;;;;;;;8.60;4.00;;;;;;;;;;5059146;28;20634;-71
2021/10/06 01:53:51;;;;;;;7.90;4.40;;;;;;;;;;5056404;28;20262;-71
2021/10/06 01:56:19;;;;;;;10.43;4.77;;;;;;;;;;5058507;28;20216;-71
2021/10/06 01:58:46;;;;;;;5.43;4.00;;;;;;;;;;5058085;28;20221;-71
2021/10/06 02:01:12;;;;;;;9.90;3.67;;;;;;;;;;5054940;28;20266;-71
2021/10/06 02:03:38;;;;;;;9.17;3.77;;;;;;;;;;5058593;28;20226;-71
2021/10/06 02:06:05;;;;;;;11.47;3.83;;;;;;;;;;5057872;28;20314;-71
2021/10/06 02:08:31;;;;;;;7.47;3.43;;;;;;;;;;5055956;28;20218;-71
2021/10/06 02:10:58;;;;;;;10.50;3.47;;;;;;;;;;5055534;28;20272;-71
2021/10/06 02:13:26;;;;;;;9.83;3.80;;;;;;;;;;5057082;28;20254;-71
2021/10/06 02:15:52;;;;;;;7.60;4.00;;;;;;;;;;5058445;28;20214;-73
2021/10/06 02:18:19;;;;;;;10.63;4.57;;;;;;;;;;5058501;28;20361;-74
2021/10/06 02:20:45;;;;;;;8.93;5.20;;;;;;;;;;5057281;28;20280;-73
2021/10/06 02:23:12;;;;;;;6.77;4.43;;;;;;;;;;5054617;28;20276;-72
2021/10/06 02:25:38;;;;;;;8.63;4.00;;;;;;;;;;5056134;28;20279;-72
2021/10/06 02:28:06;;;;;;;8.63;3.80;;;;;;;;;;5057585;28;21090;-71
2021/10/06 02:30:34;;;;;;;4.90;3.47;;;;;;;;;;5058704;28;20271;-71
2021/10/06 02:33:01;;;;;;;7.13;2.90;;;;;;;;;;5057591;28;20267;-71
2021/10/06 02:35:27;;;;;;;14.53;4.57;;;;;;;;;;5057822;28;20555;-71
2021/10/06 02:37:54;;;;;;;10.83;3.47;;;;;;;;;;5057369;28;20278;-71
2021/10/06 02:40:20;;;;;;;9.50;2.77;;;;;;;;;;5055275;28;20229;-71
2021/10/06 02:42:48;;;;;;;5.97;2.90;;;;;;;;;;5056538;28;20255;-71
2021/10/06 02:45:15;;;;;;;5.07;2.17;;;;;;;;;;5057174;28;20576;-71
2021/10/06 02:47:43;;;;;;;5.27;2.03;;;;;;;;;;5056765;28;20228;-70
2021/10/06 02:50:12;;;;;;;5.50;1.97;;;;;;;;;;5055978;28;20233;-70
2021/10/06 02:52:39;;;;;;;6.53;2.20;;;;;;;;;;5055793;28;20259;-70
2021/10/06 02:55:06;;;;;;;7.07;1.80;;;;;;;;;;5057110;28;20213;-70
2021/10/06 02:57:33;;;;;;;4.37;1.47;;;;;;;;;;5057756;28;20223;-70
2021/10/06 03:00:00;;;;;;;4.70;1.30;;;;;;;;;;5054693;28;20225;-70
2021/10/06 03:02:26;;;;;;;4.43;1.20;;;;;;;;;;5057234;28;20270;-70
2021/10/06 03:04:54;;;;;;;6.47;1.87;;;;;;;;;;5055627;28;20334;-70
2021/10/06 03:07:20;;;;;;;4.40;1.30;;;;;;;;;;5055273;28;20225;-70
2021/10/06 03:09:46;;;;;;;4.30;0.87;;;;;;;;;;5057271;28;20217;-70
2021/10/06 03:12:13;;;;;;;4.03;1.00;;;;;;;;;;5056287;28;21209;-70
2021/10/06 03:14:39;;;;;;;3.67;1.40;;;;;;;;;;5057240;28;20251;-70
2021/10/06 03:17:06;;;;;;;3.43;1.03;;;;;;;;;;5055288;28;20347;-70
2021/10/06 03:19:32;;;;;;;1.93;0.93;;;;;;;;;;5057099;28;20213;-69
2021/10/06 03:22:00;;;;;;;3.70;0.77;;;;;;;;;;5056032;28;20218;-70
2021/10/06 03:24:26;;;;;;;3.90;0.83;;;;;;;;;;5056494;28;20709;-69
2021/10/06 03:26:52;;;;;;;3.10;0.83;;;;;;;;;;5054890;28;20682;-70
2021/10/06 03:29:19;;;;;;;4.43;1.40;;;;;;;;;;5056039;28;20274;-70
2021/10/06 03:31:45;;;;;;;5.83;1.10;;;;;;;;;;5057397;28;20213;-70
2021/10/06 03:34:12;;;;;;;4.27;1.83;;;;;;;;;;5056092;28;20209;-70
2021/10/06 03:36:38;;;;;;;3.27;1.10;;;;;;;;;;5053902;28;20286;-70
2021/10/06 03:39:06;;;;;;;3.43;1.17;;;;;;;;;;5055213;28;20250;-70
2021/10/06 03:41:32;;;;;;;4.07;1.40;;;;;;;;;;5054162;28;20217;-71
2021/10/06 03:43:59;;;;;;;2.83;1.00;;;;;;;;;;5054678;28;20220;-70
2021/10/06 03:46:25;;;;;;;2.40;1.10;;;;;;;;;;5057630;28;20241;-70
2021/10/06 03:48:52;;;;;;;4.97;1.77;;;;;;;;;;5054841;28;20215;-70
2021/10/06 03:51:19;;;;;;;6.03;1.60;;;;;;;;;;5055404;28;20686;-70
2021/10/06 03:53:45;;;;;;;3.87;1.40;;;;;;;;;;5054153;28;20216;-70
2021/10/06 03:56:13;;;;;;;2.50;1.47;;;;;;;;;;5054376;28;20218;-71
2021/10/06 03:58:39;;;;;;;4.43;1.30;;;;;;;;;;5056221;28;20719;-71
2021/10/06 04:01:05;;;;;;;4.73;1.43;;;;;;;;;;5053670;28;20217;-71
2021/10/06 04:03:32;;;;;;;4.90;2.17;;;;;;;;;;5053399;28;20267;-71
2021/10/06 04:05:58;;;;;;;5.17;1.57;;;;;;;;;;5054574;28;20244;-71
2021/10/06 04:08:25;;;;;;;5.57;1.83;;;;;;;;;;5052557;28;20276;-71
2021/10/06 04:10:51;;;;;;;2.80;1.50;;;;;;;;;;5055662;28;20244;-71
2021/10/06 04:13:19;;;;;;;5.00;1.80;;;;;;;;;;5054843;28;20661;-71
2021/10/06 04:15:45;;;;;;;4.67;2.13;;;;;;;;;;5055480;28;20266;-70
2021/10/06 04:18:11;;;;;;;3.60;1.70;;;;;;;;;;5054727;28;20283;-70
2021/10/06 04:20:39;;;;;;;5.00;2.23;;;;;;;;;;5052956;28;20236;-70
2021/10/06 04:23:06;;;;;;;6.70;2.10;;;;;;;;;;5054530;28;20574;-71
2021/10/06 04:25:32;;;;;;;3.90;1.63;;;;;;;;;;5054079;28;20293;-71
2021/10/06 04:27:59;;;;;;;5.07;1.80;;;;;;;;;;5055621;28;20224;-70
2021/10/06 04:30:26;;;;;;;6.20;1.90;;;;;;;;;;5053859;28;20440;-73
2021/10/06 04:32:53;;;;;;;7.87;1.80;;;;;;;;;;5056696;28;20642;-73
2021/10/06 04:35:19;;;;;;;5.10;1.50;;;;;;;;;;5055043;28;20284;-72
2021/10/06 04:37:46;;;;;;;3.43;1.27;;;;;;;;;;5056364;28;20215;-72
2021/10/06 04:40:13;;;;;;;3.53;1.30;;;;;;;;;;5052735;28;20668;-71
2021/10/06 04:42:39;;;;;;;5.00;1.10;;;;;;;;;;5054596;28;20291;-71
2021/10/06 04:45:07;;;;;;;6.03;1.20;;;;;;;;;;5054260;28;20620;-72
2021/10/06 04:47:35;;;;;;;3.33;1.40;;;;;;;;;;5054194;28;20775;-72
2021/10/06 04:50:01;;;;;;;6.63;1.17;;;;;;;;;;5053951;28;20235;-72
2021/10/06 04:52:27;;;;;;;3.20;1.27;;;;;;;;;;5055327;28;20212;-72
2021/10/06 04:54:55;;;;;;;5.27;1.70;;;;;;;;;;5053824;28;20213;-72
2021/10/06 04:57:21;;;;;;;4.10;1.50;;;;;;;;;;5055076;28;20244;-72
2021/10/06 04:59:48;;;;;;;5.87;1.67;;;;;;;;;;5056357;28;20209;-72
2021/10/06 05:02:14;;;;;;;3.87;1.40;;;;;;;;;;5055407;28;20281;-72
2021/10/06 05:04:42;;;;;;;5.27;1.73;;;;;;;;;;5053468;28;20229;-72
2021/10/06 05:07:09;;;;;;;4.33;1.97;;;;;;;;;;5057379;28;20311;-72
2021/10/06 05:09:35;;;;;;;4.03;2.37;;;;;;;;;;5059138;28;20259;-71
2021/10/06 05:12:01;;;;;;;4.63;2.53;;;;;;;;;;5058819;28;20267;-72
2021/10/06 05:14:28;;;;;;;7.10;3.20;;;;;;;;;;5059665;28;20218;-71
2021/10/06 05:16:55;;;;;;;5.23;3.70;;;;;;;;;;5058470;28;20706;-72
2021/10/06 05:19:22;;;;;;;4.23;2.70;;;;;;;;;;5058171;28;20217;-72
2021/10/06 05:21:49;;;;;;;5.23;2.73;;;;;;;;;;5059437;28;20215;-72
2021/10/06 05:24:16;;;;;;;3.77;2.70;;;;;;;;;;5059113;28;20221;-72
2021/10/06 05:26:42;;;;;;;2.80;2.50;;;;;;;;;;5058624;28;20233;-72
2021/10/06 05:29:09;;;;;;;2.97;2.60;;;;;;;;;;5058669;28;20948;-71
2021/10/06 05:31:35;;;;;;;7.03;2.53;;;;;;;;;;5057500;28;20224;-72
2021/10/06 05:34:02;;;;;;;5.23;3.10;;;;;;;;;;5057312;28;20215;-74
2021/10/06 05:36:28;;;;;;;7.03;2.90;;;;;;;;;;5058260;28;20298;-73
2021/10/06 05:38:56;;;;;;;3.73;2.43;;;;;;;;;;5055584;28;20230;-73
2021/10/06 05:41:22;;;;;;;5.30;2.23;;;;;;;;;;5054708;28;20215;-75
2021/10/06 05:43:48;;;;;;;4.13;2.33;;;;;;;;;;5054487;28;20619;-71
2021/10/06 05:46:15;;;;;;;4.47;2.23;;;;;;;;;;5055978;28;20812;-71
2021/10/06 05:48:41;;;;;;;5.33;1.80;;;;;;;;;;5055680;28;20257;-71
2021/10/06 05:51:07;;;;;;;6.40;2.50;;;;;;;;;;5055875;28;20281;-74
2021/10/06 05:53:34;;;;;;;3.77;2.10;;;;;;;;;;5054459;28;20313;-71
2021/10/06 05:56:01;;;;;;;6.07;2.27;;;;;;;;;;5056328;28;20214;-74
2021/10/06 05:58:28;;;;;;;3.30;2.20;;;;;;;;;;5056292;28;20211;-74
2021/10/06 06:00:55;;;;;;;5.23;2.40;;;;;;;;;;5058076;28;20289;-72
2021/10/06 06:03:22;;;;;;;3.10;2.30;;;;;;;;;;5058117;28;20298;-72
2021/10/06 06:05:48;;;;;;;5.53;2.30;;;;;;;;;;5057306;28;20236;-72
2021/10/06 06:08:14;;;;;;;5.53;2.40;;;;;;;;;;5054326;28;20216;-72
2021/10/06 06:10:41;;;;;;;5.67;3.57;;;;;;;;;;5057450;28;20232;-74
2021/10/06 06:13:08;;;;;;;5.60;2.93;;;;;;;;;;5054885;28;20645;-77
2021/10/06 06:15:35;;;;;;;5.77;3.17;;;;;;;;;;5054477;28;20262;-75
2021/10/06 06:18:02;;;;;;;4.60;3.63;;;;;;;;;;5054765;28;20779;-72
2021/10/06 06:20:29;;;;;;;6.87;4.03;;;;;;;;;;5054387;28;20286;-73
2021/10/06 06:22:55;;;;;;;4.20;3.80;;;;;;;;;;5057081;28;20218;-72
2021/10/06 06:25:22;;;;;;;5.07;4.57;;;;;;;;;;5053955;28;20577;-72
2021/10/06 06:27:50;;;;;;;5.40;4.90;;;;;;;;;;5055537;28;20233;-71
2021/10/06 06:30:17;;;;;;;6.83;5.83;;;;;;;;;;5054073;28;20213;-71
2021/10/06 06:32:44;;;;;;;6.57;5.60;;;;;;;;;;5055318;28;20220;-72
2021/10/06 06:35:11;;;;;;;6.33;5.20;;;;;;;;;;5054132;28;20233;-72
2021/10/06 06:37:38;;;;;;;8.30;6.10;;;;;;;;;;5055929;28;20215;-72
2021/10/06 06:40:07;;;;;;;6.57;5.77;;;;;;;;;;5054336;28;20215;-72
2021/10/06 06:42:33;;;;;;;5.87;5.37;;;;;;;;;;5056196;28;20216;-72
2021/10/06 06:45:00;;;;;;;5.87;5.07;;;;;;;;;;5055128;28;20291;-72
2021/10/06 06:47:27;;;;;;;6.80;5.43;;;;;;;;;;5054716;28;20245;-72
2021/10/06 06:49:54;;;;;;;6.87;5.27;;;;;;;;;;5056127;28;20291;-72
2021/10/06 06:52:21;;;;;;;5.97;4.00;;;;;;;;;;5054125;28;20220;-72
2021/10/06 06:54:47;;;;;;;7.33;5.20;;;;;;;;;;5052848;28;20271;-72
2021/10/06 06:57:13;;;;;;;6.10;4.13;;;;;;;;;;5051036;28;20213;-72
2021/10/06 06:59:40;;;;;;;7.80;4.97;;;;;;;;;;5053949;28;20301;-72
2021/10/06 07:02:06;;;;;;;7.53;5.10;;;;;;;;;;5051903;28;20206;-72
2021/10/06 07:04:35;;;;;;;6.27;3.70;;;;;;;;;;5053073;28;20217;-71
2021/10/06 07:07:03;;;;;;;5.93;3.57;;;;;;;;;;5051977;28;20920;-71
2021/10/06 07:09:30;;;;;;;7.33;3.90;;;;;;;;;;5055906;28;20217;-71
2021/10/06 07:11:56;;;;;;;8.27;3.93;;;;;;;;;;5054311;28;20316;-71
2021/10/06 07:14:23;;;;;;;5.63;3.47;;;;;;;;;;5054099;28;20216;-71
2021/10/06 07:16:49;;;;;;;6.07;3.23;;;;;;;;;;5053972;28;20500;-71
2021/10/06 07:19:16;;;;;;;6.83;2.97;;;;;;;;;;5053568;28;20220;-71
2021/10/06 07:21:44;;;;;;;6.10;2.87;;;;;;;;;;5052303;28;20595;-71
2021/10/06 07:24:12;;;;;;;5.23;2.77;;;;;;;;;;5054993;28;20622;-71
2021/10/06 07:26:39;;;;;;;8.73;2.90;;;;;;;;;;5054171;28;20234;-71
2021/10/06 07:29:05;;;;;;;7.57;2.53;;;;;;;;;;5051460;28;20216;-70
2021/10/06 07:31:31;;;;;;;5.67;2.97;;;;;;;;;;5054157;28;20691;-71
2021/10/06 07:33:58;;;;;;;9.70;2.73;;;;;;;;;;5054659;28;20302;-71
2021/10/06 07:36:25;;;;;;;7.53;2.47;;;;;;;;;;5051987;28;20863;-71
2021/10/06 07:38:53;;;;;;;8.10;2.57;;;;;;;;;;5053123;28;20575;-71
2021/10/06 07:41:20;;;;;;;6.50;2.07;;;;;;;;;;5053952;28;21241;-71
2021/10/06 07:43:47;;;;;;;5.20;2.00;;;;;;;;;;5052872;28;20263;-71
2021/10/06 07:46:13;;;;;;;5.50;1.63;;;;;;;;;;5051438;28;20276;-71
2021/10/06 07:48:40;;;;;;;7.37;1.63;;;;;;;;;;5052912;28;20222;-71
2021/10/06 07:51:06;;;;;;;6.13;1.97;;;;;;;;;;5051611;28;20231;-70
2021/10/06 07:53:33;;;;;;;10.33;2.17;;;;;;;;;;5053730;28;20217;-71
2021/10/06 07:56:00;;;;;;;9.20;2.10;;;;;;;;;;5052969;28;20266;-71
2021/10/06 07:58:27;;;;;;;8.07;1.83;;;;;;;;;;5054591;28;20217;-71
2021/10/06 08:00:53;;;;;;;10.63;1.93;;;;;;;;;;5050737;28;20262;-73
2021/10/06 08:03:20;;;;;;;8.73;2.10;;;;;;;;;;5050445;28;20271;-74
2021/10/06 08:05:47;;;;;;;8.30;1.90;;;;;;;;;;5053651;28;20296;-73
2021/10/06 08:08:13;;;;;;;8.53;1.80;;;;;;;;;;5052085;28;20240;-73
2021/10/06 08:10:40;;;;;;;7.27;1.23;;;;;;;;;;5052634;28;20214;-72
2021/10/06 08:13:08;;;;;;;6.73;1.50;;;;;;;;;;5052714;28;20254;-72
2021/10/06 08:15:36;;;;;;;6.87;1.50;;;;;;;;;;5049635;28;20832;-72
2021/10/06 08:18:02;;;;;;;4.70;1.10;;;;;;;;;;5054127;28;20269;-71
2021/10/06 08:20:33;;;;;;;5.73;1.33;;;;;;;;;;5051106;28;20240;-71
2021/10/06 08:23:00;;;;;;;4.13;1.60;;;;;;;;;;5052019;28;20698;-71
2021/10/06 08:25:26;;;;;;;3.27;1.63;;;;;;;;;;5053200;28;20270;-71
2021/10/06 08:27:54;;;;;;;5.60;1.80;;;;;;;;;;5051386;28;20612;-71
2021/10/06 08:30:23;;;;;;;4.53;1.93;;;;;;;;;;5050534;28;20217;-71
2021/10/06 08:32:49;;;;;;;2.50;1.30;;;;;;;;;;5051237;28;20265;-71
2021/10/06 08:35:16;;;;;;;4.27;1.90;;;;;;;;;;5052177;28;20823;-72
2021/10/06 08:37:42;;;;;;;3.17;1.30;;;;;;;;;;5052559;28;20348;-71
2021/10/06 08:40:10;;;;;;;4.03;1.67;;;;;;;;;;5051973;28;20221;-71
2021/10/06 08:42:37;;;;;;;2.10;0.93;;;;;;;;;;5051318;28;20215;-72
2021/10/06 08:45:07;;;;;;;2.83;0.80;;;;;;;;;;5052796;28;20264;-71
2021/10/06 08:47:36;;;;;;;2.23;0.80;;;;;;;;;;5051480;28;20680;-72
2021/10/06 08:50:02;;;;;;;1.53;0.77;;;;;;;;;;5053159;28;20900;-71
2021/10/06 08:52:29;;;;;;;2.93;1.00;;;;;;;;;;5051437;28;20305;-71
2021/10/06 08:54:56;;;;;;;2.50;0.90;;;;;;;;;;5051972;28;20225;-71
2021/10/06 08:57:22;;;;;;;2.60;0.90;;;;;;;;;;5050842;28;20214;-71
2021/10/06 08:59:48;;;;;;;2.20;0.90;;;;;;;;;;5052004;28;20261;-71
2021/10/06 09:02:16;;;;;;;2.20;0.80;;;;;;;;;;5052225;28;20217;-71
2021/10/06 09:04:45;;;;;;;2.50;0.97;;;;;;;;;;5052665;28;20234;-72
2021/10/06 09:07:11;;;;;;;2.63;1.10;;;;;;;;;;5050719;28;20276;-71
2021/10/06 09:09:38;;;;;;;3.83;2.00;;;;;;;;;;5053476;28;20214;-72
2021/10/06 09:12:10;;;;;;;6.77;3.20;;;;;;;;;;5051303;28;20252;-72
2021/10/06 09:14:40;;;;;;;6.27;3.90;;;;;;;;;;5053147;28;20206;-72
2021/10/06 09:17:08;;;;;;;5.73;2.60;;;;;;;;;;5053158;28;20322;-71
2021/10/06 09:19:37;;;;;;;4.93;2.57;;;;;;;;;;5052383;28;20217;-73
2021/10/06 09:22:06;;;;;;;4.70;2.83;;;;;;;;;;5052851;28;20218;-73
2021/10/06 09:24:52;;;;;;;6.63;3.20;;;;;;;;;;5052618;28;20224;-73
2021/10/06 09:27:20;;;;;;;6.83;3.80;;;;;;;;;;5053339;28;20221;-74
2021/10/06 09:29:47;;;;;;;4.07;1.87;;;;;;;;;;5051764;28;20590;-73
2021/10/06 09:32:21;;;;;;;3.80;1.50;;;;;;;;;;5051385;28;20719;-73
2021/10/06 09:34:59;;;;;;;4.47;1.63;;;;;;;;;;5051358;28;20794;-73
2021/10/06 09:37:28;;;;;;;2.60;1.20;;;;;;;;;;5053377;28;20206;-73
2021/10/06 09:39:55;;;;;;;2.93;1.23;;;;;;;;;;5052782;28;20281;-74
2021/10/06 09:42:22;;;;;;;3.97;1.37;;;;;;;;;;5051733;28;20212;-74
2021/10/06 09:44:53;;;;;;;5.20;1.40;;;;;;;;;;5051540;28;20226;-73
2021/10/06 09:47:23;;;;;;;5.50;1.93;;;;;;;;;;5050300;28;20238;-74
2021/10/06 09:49:55;;;;;;;4.53;1.60;;;;;;;;;;5051962;28;20320;-74
2021/10/06 09:52:23;;;;;;;4.57;1.10;;;;;;;;;;5055608;28;20627;-74
2021/10/06 09:54:53;;;;;;;5.97;1.57;;;;;;;;;;5057005;28;20211;-75
2021/10/06 09:57:24;;;;;;;4.60;0.93;;;;;;;;;;5054224;28;20260;-73
2021/10/06 09:59:51;;;;;;;2.00;1.00;;;;;;;;;;5055853;28;20231;-74
2021/10/06 10:02:18;;;;;;;5.43;1.10;;;;;;;;;;5055394;28;20215;-74
2021/10/06 10:04:45;;;;;;;3.40;1.30;;;;;;;;;;5055516;28;20287;-74
2021/10/06 10:07:11;;;;;;;6.83;1.47;;;;;;;;;;5054465;28;20498;-74
2021/10/06 10:09:38;;;;;;;4.50;1.13;;;;;;;;;;5056619;28;20658;-74
2021/10/06 10:12:07;;;;;;;3.90;1.20;;;;;;;;;;5054116;28;20716;-74
2021/10/06 10:14:34;;;;;;;2.90;1.20;;;;;;;;;;5058645;28;20264;-74
2021/10/06 10:17:01;;;;;;;6.57;1.10;;;;;;;;;;5054657;28;20272;-74
2021/10/06 10:19:28;;;;;;;3.10;0.87;;;;;;;;;;5053406;28;20641;-73
2021/10/06 10:21:56;;;;;;;4.00;0.63;;;;;;;;;;5055519;28;21075;-73
2021/10/06 10:24:25;;;;;;;3.03;0.97;;;;;;;;;;5054983;28;20214;-74
2021/10/06 10:27:04;;;;;;;2.90;0.80;;;;;;;;;;5053932;28;20272;-72
2021/10/06 10:29:37;;;;;;;4.67;0.90;;;;;;;;;;5054885;28;20214;-72
2021/10/06 10:32:07;;;;;;;3.03;0.80;;;;;;;;;;5055942;28;20215;-72
2021/10/06 10:35:06;;;;;;;2.80;0.83;;;;;;;;;;5054944;28;20702;-72
2021/10/06 10:38:12;;;;;;;3.13;1.20;;;;;;;;;;5056142;28;20263;-72
2021/10/06 10:40:46;;;;;;;4.00;0.70;;;;;;;;;;5053962;28;20206;-74
2021/10/06 10:43:14;;;;;;;2.53;0.70;;;;;;;;;;5054254;28;20276;-72
2021/10/06 10:45:44;;;;;;;3.73;0.87;;;;;;;;;;5055075;28;20215;-72
2021/10/06 10:48:12;;;;;;;5.87;1.13;;;;;;;;;;5053473;28;20223;-75
2021/10/06 10:51:07;;;;;;;2.20;1.00;;;;;;;;;;5052777;28;20227;-75
2021/10/06 10:53:58;;;;;;;6.80;1.83;;;;;;;;;;5044494;28;20222;-72
2021/10/06 10:56:26;;;;;;;4.07;1.00;;;;;;;;;;5052739;28;20220;-76
2021/10/06 10:59:05;;;;;;;3.57;1.00;;;;;;;;;;5054741;28;20755;-76
2021/10/06 11:01:46;;;;;;;5.33;1.30;;;;;;;;;;5057259;28;20263;-76
2021/10/06 11:04:15;;;;;;;3.80;1.00;;;;;;;;;;5051702;28;20216;-77
2021/10/06 11:06:44;;;;;;;6.80;1.47;;;;;;;;;;5054577;28;20235;-77
2021/10/06 11:09:43;;;;;;;6.70;1.60;;;;;;;;;;5055185;28;20234;-77
2021/10/06 11:12:29;;;;;;;6.13;1.27;;;;;;;;;;5055166;28;20241;-76
2021/10/06 11:15:33;;;;;;;2.67;0.90;;;;;;;;;;5055214;28;20210;-76
2021/10/06 11:18:38;;;;;;;4.53;1.20;;;;;;;;;;5053695;28;20229;-76
2021/10/06 11:21:07;;;;;;;4.10;0.90;;;;;;;;;;5056288;28;20288;-75
2021/10/06 11:24:00;;;;;;;5.27;1.20;;;;;;;;;;5055447;28;20217;-77
2021/10/06 11:26:30;;;;;;;4.07;0.90;;;;;;;;;;5053739;28;20201;-77
2021/10/06 11:28:58;;;;;;;4.97;1.20;;;;;;;;;;5053779;28;20605;-74
2021/10/06 11:31:27;;;;;;;2.83;1.30;;;;;;;;;;5054035;28;20271;-76
2021/10/06 11:33:57;;;;;;;4.93;1.27;;;;;;;;;;5054329;28;20283;-76
2021/10/06 11:36:25;;;;;;;4.83;0.77;;;;;;;;;;5054166;28;20237;-76
2021/10/06 11:38:56;;;;;;;3.27;0.60;;;;;;;;;;5054350;28;20258;-74
2021/10/06 11:41:23;;;;;;;3.73;0.90;;;;;;;;;;5055035;28;20237;-75
2021/10/06 11:43:54;;;;;;;4.20;0.97;;;;;;;;;;5053991;28;20214;-75
2021/10/06 11:46:23;;;;;;;4.40;0.80;;;;;;;;;;5052363;28;20657;-75
2021/10/06 11:48:57;;;;;;;5.83;0.97;;;;;;;;;;5052675;28;20577;-73
2021/10/06 11:51:38;;;;;;;3.97;1.00;;;;;;;;;;5052674;28;20232;-73
2021/10/06 11:54:05;;;;;;;4.33;1.07;;;;;;;;;;5052086;28;20306;-72
2021/10/06 11:56:32;;;;;;;7.83;1.73;;;;;;;;;;5053125;28;20272;-73
2021/10/06 11:59:06;;;;;;;7.00;1.87;;;;;;;;;;5052518;28;20211;-74
2021/10/06 12:01:32;;;;;;;9.13;1.33;;;;;;;;;;5054546;28;20256;-73
2021/10/06 12:04:09;;;;;;;4.83;0.90;;;;;;;;;;5054240;28;20215;-72
2021/10/06 12:06:35;;;;;;;6.43;1.33;;;;;;;;;;5050909;28;20350;-74
2021/10/06 12:09:08;;;;;;;6.80;1.07;;;;;;;;;;5053465;28;20283;-72
2021/10/06 12:11:35;;;;;;;5.47;1.00;;;;;;;;;;5051799;28;20242;-72
2021/10/06 12:14:16;;;;;;;6.00;1.30;;;;;;;;;;5051480;28;20214;-73
2021/10/06 12:16:43;;;;;;;4.10;1.10;;;;;;;;;;5054050;28;20590;-73
2021/10/06 12:19:10;;;;;;;6.27;1.00;;;;;;;;;;5052440;28;20208;-72
2021/10/06 12:21:46;;;;;;;4.13;1.07;;;;;;;;;;5053691;28;20276;-71
2021/10/06 12:24:16;;;;;;;4.77;1.27;;;;;;;;;;5051906;28;20216;-72
2021/10/06 12:26:43;;;;;;;9.47;1.90;;;;;;;;;;5052920;28;20213;-72
2021/10/06 12:29:09;;;;;;;7.40;1.60;;;;;;;;;;5051518;28;20239;-72
2021/10/06 12:31:38;;;;;;;5.80;1.47;;;;;;;;;;5051715;28;20276;-72
2021/10/06 12:34:11;;;;;;;12.33;1.93;;;;;;;;;;5052181;28;20218;-72
2021/10/06 12:36:45;;;;;;;11.00;2.87;;;;;;;;;;5053135;28;20706;-72
2021/10/06 12:39:15;;;;;;;7.03;1.20;;;;;;;;;;5052691;28;20317;-72
2021/10/06 12:41:43;;;;;;;4.17;1.40;;;;;;;;;;5053860;28;20217;-72
2021/10/06 12:44:18;;;;;;;5.40;0.73;;;;;;;;;;5051281;28;20542;-73
2021/10/06 12:46:45;;;;;;;6.97;0.97;;;;;;;;;;5052795;28;20276;-74
2021/10/06 12:49:14;;;;;;;5.20;1.00;;;;;;;;;;5053198;28;20287;-73
2021/10/06 12:51:42;;;;;;;5.30;0.90;;;;;;;;;;5052088;28;20729;-71
2021/10/06 12:54:15;;;;;;;4.70;1.10;;;;;;;;;;5053249;28;20234;-71
2021/10/06 12:56:48;;;;;;;7.57;1.07;;;;;;;;;;5054095;28;20217;-71
2021/10/06 12:59:16;;;;;;;8.43;1.63;;;;;;;;;;5052627;28;20220;-71
2021/10/06 13:01:44;;;;;;;5.17;1.10;;;;;;;;;;5052272;28;20225;-73
2021/10/06 13:04:15;;;;;;;7.07;0.97;;;;;;;;;;5051070;28;20699;-72
2021/10/06 13:06:44;;;;;;;4.87;1.27;;;;;;;;;;5051770;28;20379;-72
2021/10/06 13:09:11;;;;;;;5.57;1.13;;;;;;;;;;5050869;28;20261;-72
2021/10/06 13:11:38;;;;;;;6.37;1.10;;;;;;;;;;5053816;28;20613;-72
2021/10/06 13:14:06;;;;;;;2.50;0.80;;;;;;;;;;5053647;28;20248;-72
2021/10/06 13:16:32;;;;;;;3.13;0.93;;;;;;;;;;5050896;28;20215;-72
2021/10/06 13:18:59;;;;;;;5.03;1.00;;;;;;;;;;5052167;28;20206;-72
2021/10/06 13:21:28;;;;;;;5.23;0.80;;;;;;;;;;5053017;28;20288;-72
2021/10/06 13:23:55;;;;;;;6.57;1.37;;;;;;;;;;5051103;28;20219;-72
2021/10/06 13:26:22;;;;;;;3.80;0.70;;;;;;;;;;5053071;28;20218;-73
2021/10/06 13:28:49;;;;;;;2.53;0.83;;;;;;;;;;5056007;28;20226;-73
2021/10/06 13:31:16;;;;;;;3.90;0.77;;;;;;;;;;5057472;28;20246;-72
2021/10/06 13:33:43;;;;;;;2.83;0.70;;;;;;;;;;5055224;28;20717;-73
2021/10/06 13:36:11;;;;;;;2.47;0.50;;;;;;;;;;5056921;28;21417;-73
2021/10/06 13:38:40;;;;;;;5.07;0.60;;;;;;;;;;5056295;28;20259;-72
2021/10/06 13:41:08;;;;;;;2.10;0.60;;;;;;;;;;5056569;28;20242;-72
2021/10/06 13:43:36;;;;;;;3.33;0.70;;;;;;;;;;5056738;28;20665;-72
2021/10/06 13:46:03;;;;;;;3.57;0.80;;;;;;;;;;5057389;28;20220;-72
2021/10/06 13:48:29;;;;;;;2.30;0.83;;;;;;;;;;5054920;28;20233;-72
2021/10/06 13:50:56;;;;;;;5.70;0.70;;;;;;;;;;5056862;28;20235;-72
2021/10/06 13:53:23;;;;;;;4.93;1.23;;;;;;;;;;5055151;28;20243;-73
2021/10/06 13:55:51;;;;;;;2.90;0.70;;;;;;;;;;5056590;28;20221;-73
2021/10/06 13:58:18;;;;;;;4.37;0.90;;;;;;;;;;5056807;28;20274;-73
2021/10/06 14:00:44;;;;;;;3.70;0.70;;;;;;;;;;5055039;28;20277;-73
2021/10/06 14:03:11;;;;;;;2.50;0.80;;;;;;;;;;5056827;28;20722;-73
2021/10/06 14:05:37;;;;;;;3.20;0.60;;;;;;;;;;5054344;28;20235;-72
2021/10/06 14:08:04;;;;;;;2.33;0.90;;;;;;;;;;5057391;28;20216;-73
2021/10/06 14:10:31;;;;;;;2.33;0.83;;;;;;;;;;5055137;28;20288;-73
2021/10/06 14:12:59;;;;;;;2.07;0.80;;;;;;;;;;5054531;28;20252;-73
2021/10/06 14:15:25;;;;;;;3.30;0.70;;;;;;;;;;5053211;28;20204;-72
2021/10/06 14:17:54;;;;;;;2.17;0.67;;;;;;;;;;5054112;28;20213;-73
2021/10/06 14:20:21;;;;;;;2.47;0.60;;;;;;;;;;5056587;28;20251;-73
2021/10/06 14:22:49;;;;;;;4.77;0.90;;;;;;;;;;5057770;28;20687;-73
2021/10/06 14:25:17;;;;;;;2.73;0.63;;;;;;;;;;5055768;28;20213;-73
2021/10/06 14:27:44;;;;;;;2.17;0.70;;;;;;;;;;5056470;28;20221;-73
2021/10/06 14:30:15;;;;;;;4.73;1.33;;;;;;;;;;5054845;28;20326;-73
2021/10/06 14:32:44;;;;;;;3.17;1.03;;;;;;;;;;5054985;28;20292;-73
2021/10/06 14:35:11;;;;;;;2.87;1.20;;;;;;;;;;5054872;28;20226;-73
2021/10/06 14:37:38;;;;;;;5.67;1.63;;;;;;;;;;5054317;28;20217;-73
2021/10/06 14:40:06;;;;;;;3.23;0.80;;;;;;;;;;5053968;28;20212;-73
2021/10/06 14:42:32;;;;;;;3.43;1.00;;;;;;;;;;5055804;28;20216;-73
2021/10/06 14:45:00;;;;;;;4.57;1.10;;;;;;;;;;5054777;28;20657;-73
2021/10/06 14:47:28;;;;;;;8.13;1.30;;;;;;;;;;5055343;28;20949;-73
2021/10/06 14:49:54;;;;;;;5.20;1.20;;;;;;;;;;5054679;28;20241;-72